createdAt,value
2023-05-03T00:02:07.249Z,2.33
2023-05-03T00:04:36.464Z,2.20
2023-05-03T00:07:10.833Z,2.28
2023-05-03T00:09:41.580Z,2.22
2023-05-03T00:12:14.058Z,1.70
2023-05-03T00:14:43.453Z,2.00
2023-05-03T00:17:12.942Z,2.33
2023-05-03T00:19:48.985Z,1.85
2023-05-03T00:22:18.442Z,1.92
2023-05-03T00:24:49.052Z,2.10
2023-05-03T00:27:27.980Z,1.92
2023-05-03T00:29:57.325Z,1.80
2023-05-03T00:32:26.668Z,1.85
2023-05-03T00:34:56.357Z,1.65
2023-05-03T00:37:25.891Z,2.00
2023-05-03T00:39:55.628Z,2.03
2023-05-03T00:42:26.813Z,2.15
2023-05-03T00:44:57.496Z,1.80
2023-05-03T00:47:27.060Z,1.60
2023-05-03T00:52:38.792Z,1.80
2023-05-03T00:55:13.968Z,1.50
2023-05-03T00:57:45.283Z,1.90
2023-05-03T01:00:17.700Z,1.70
2023-05-03T01:02:47.041Z,1.83
2023-05-03T01:05:16.440Z,1.83
2023-05-03T01:08:02.988Z,1.80
2023-05-03T01:16:17.392Z,1.92
2023-05-03T01:18:49.965Z,2.00
2023-05-03T01:21:27.104Z,1.98
2023-05-03T01:24:01.646Z,1.80
2023-05-03T01:26:35.219Z,1.33
2023-05-03T01:29:04.732Z,1.33
2023-05-03T01:31:38.575Z,1.40
2023-05-03T01:34:25.195Z,1.48
2023-05-03T01:36:58.025Z,1.50
2023-05-03T01:39:33.398Z,1.63
2023-05-03T01:42:11.196Z,1.60
2023-05-03T01:44:46.459Z,1.52
2023-05-03T01:47:16.758Z,1.30
2023-05-03T01:49:46.154Z,1.40
2023-05-03T01:52:32.118Z,1.50
2023-05-03T01:55:01.427Z,1.77
2023-05-03T01:57:34.647Z,1.30
2023-05-03T02:00:04.489Z,1.73
2023-05-03T02:02:42.541Z,1.80
2023-05-03T02:05:17.149Z,1.60
2023-05-03T02:07:47.058Z,1.70
2023-05-03T02:10:16.439Z,1.73
2023-05-03T02:12:47.713Z,1.63
2023-05-03T02:15:24.676Z,1.52
2023-05-03T02:17:55.327Z,1.58
2023-05-03T02:20:24.847Z,1.70
2023-05-03T02:22:54.473Z,1.40
2023-05-03T02:25:29.063Z,1.65
2023-05-03T02:28:00.808Z,1.48
2023-05-03T02:33:09.151Z,1.42
2023-05-03T02:35:40.608Z,1.67
2023-05-03T02:38:10.010Z,1.48
2023-05-03T02:40:39.318Z,1.83
2023-05-03T02:43:10.655Z,1.58
2023-05-03T02:45:40.132Z,1.40
2023-05-03T02:48:09.518Z,1.60
2023-05-03T02:50:44.411Z,1.67
2023-05-03T02:53:13.698Z,1.67
2023-05-03T02:55:43.341Z,1.45
2023-05-03T02:58:14.990Z,1.75
2023-05-03T03:00:44.689Z,1.63
2023-05-03T03:03:17.929Z,1.65
2023-05-03T03:05:47.469Z,1.60
2023-05-03T03:08:23.058Z,1.50
2023-05-03T03:10:52.861Z,1.75
2023-05-03T03:13:24.131Z,1.65
2023-05-03T03:15:58.730Z,1.95
2023-05-03T03:18:29.941Z,2.22
2023-05-03T03:20:59.422Z,1.98
2023-05-03T03:23:28.940Z,2.10
2023-05-03T03:26:03.309Z,1.80
2023-05-03T03:28:34.623Z,2.20
2023-05-03T03:31:10.959Z,2.00
2023-05-03T03:33:41.408Z,2.15
2023-05-03T03:36:16.033Z,1.95
2023-05-03T03:38:53.416Z,2.47
2023-05-03T03:41:23.281Z,1.80
2023-05-03T03:43:55.386Z,1.60
2023-05-03T03:46:36.024Z,1.60
2023-05-03T03:49:05.915Z,1.80
2023-05-03T03:51:35.800Z,2.08
2023-05-03T03:54:05.287Z,1.90
2023-05-03T03:56:43.671Z,2.20
2023-05-03T03:59:15.509Z,2.20
2023-05-03T04:01:46.134Z,2.00
2023-05-03T04:04:21.209Z,2.17
2023-05-03T04:06:51.575Z,1.83
2023-05-03T04:09:22.104Z,2.20
2023-05-03T04:11:51.494Z,2.25
2023-05-03T04:16:58.798Z,1.77
2023-05-03T04:19:28.863Z,2.10
2023-05-03T04:22:03.740Z,2.00
2023-05-03T04:24:33.371Z,1.77
2023-05-03T04:27:09.089Z,2.22
2023-05-03T04:29:43.462Z,2.17
2023-05-03T04:32:22.887Z,1.60
2023-05-03T04:34:54.614Z,2.10
2023-05-03T04:37:27.182Z,1.85
2023-05-03T04:39:56.522Z,1.67
2023-05-03T04:42:26.000Z,1.73
2023-05-03T04:45:03.168Z,2.00
2023-05-03T04:47:34.670Z,1.80
2023-05-03T04:50:15.738Z,1.92
2023-05-03T04:52:48.793Z,1.70
2023-05-03T04:55:23.778Z,1.90
2023-05-03T04:58:09.443Z,1.90
2023-05-03T05:00:44.512Z,1.70
2023-05-03T05:03:21.555Z,1.80
2023-05-03T05:05:53.354Z,2.05
2023-05-03T05:08:23.311Z,2.13
2023-05-03T05:10:57.862Z,2.28
2023-05-03T05:13:32.977Z,2.08
2023-05-03T05:16:10.405Z,1.83
2023-05-03T05:18:43.080Z,2.15
2023-05-03T05:21:14.221Z,1.98
2023-05-03T05:23:43.712Z,2.40
2023-05-03T05:26:13.636Z,2.55
2023-05-03T05:28:43.382Z,2.15
2023-05-03T05:31:15.336Z,2.40
2023-05-03T05:33:45.447Z,2.28
2023-05-03T05:36:16.166Z,2.25
2023-05-03T05:41:21.088Z,1.80
2023-05-03T05:43:55.781Z,1.70
2023-05-03T05:46:27.413Z,1.92
2023-05-03T05:49:02.229Z,2.10
2023-05-03T05:51:31.773Z,1.80
2023-05-03T05:54:01.739Z,2.35
2023-05-03T05:56:31.110Z,2.17
2023-05-03T05:59:00.667Z,2.25
2023-05-03T06:04:08.795Z,3.10
2023-05-03T06:06:38.451Z,4.90
2023-05-03T06:09:17.182Z,3.03
2023-05-03T06:11:55.833Z,2.50
2023-05-03T06:14:31.457Z,2.50
2023-05-03T06:17:03.757Z,3.55
2023-05-03T06:19:33.284Z,3.50
2023-05-03T06:22:02.473Z,3.05
2023-05-03T06:24:33.480Z,2.90
2023-05-03T06:27:08.040Z,2.75
2023-05-03T06:29:44.519Z,3.42
2023-05-03T06:32:15.949Z,3.00
2023-05-03T06:34:50.546Z,3.72
2023-05-03T06:37:20.946Z,4.13
2023-05-03T06:39:55.733Z,5.35
2023-05-03T06:42:25.196Z,4.60
2023-05-03T06:45:13.676Z,3.25
2023-05-03T06:47:45.197Z,2.40
2023-05-03T06:50:14.819Z,2.33
2023-05-03T06:52:44.110Z,2.42
2023-05-03T06:55:13.705Z,2.90
2023-05-03T06:57:43.674Z,4.18
2023-05-03T07:00:15.616Z,2.55
2023-05-03T07:02:47.097Z,2.80
2023-05-03T07:05:16.829Z,2.45
2023-05-03T07:07:46.109Z,3.05
2023-05-03T07:10:16.214Z,2.80
2023-05-03T07:12:45.501Z,2.72
2023-05-03T07:15:14.825Z,3.65
2023-05-03T07:17:44.139Z,3.72
2023-05-03T07:20:15.764Z,3.08
2023-05-03T07:22:45.880Z,3.42
2023-05-03T07:25:17.349Z,3.70
2023-05-03T07:27:46.732Z,2.67
2023-05-03T07:30:21.937Z,2.92
2023-05-03T07:32:51.426Z,2.65
2023-05-03T07:35:22.901Z,3.22
2023-05-03T07:37:52.413Z,3.10
2023-05-03T07:40:21.828Z,3.05
2023-05-03T07:42:51.347Z,3.33
2023-05-03T07:45:27.237Z,3.90
2023-05-03T07:47:58.353Z,3.55
2023-05-03T07:50:29.725Z,3.47
2023-05-03T07:52:59.742Z,3.40
2023-05-03T07:55:31.130Z,3.40
2023-05-03T07:58:00.912Z,3.50
2023-05-03T08:00:31.670Z,3.38
2023-05-03T08:03:06.606Z,3.30
2023-05-03T08:05:44.164Z,3.70
2023-05-03T08:08:14.955Z,3.95
2023-05-03T08:10:44.347Z,2.90
2023-05-03T08:13:13.933Z,2.83
2023-05-03T08:15:43.193Z,2.67
2023-05-03T08:18:12.525Z,2.88
2023-05-03T08:20:48.985Z,3.35
2023-05-03T08:23:19.013Z,2.90
2023-05-03T08:25:48.602Z,2.80
2023-05-03T08:28:17.921Z,2.70
2023-05-03T08:31:04.654Z,2.90
2023-05-03T08:33:34.209Z,2.70
2023-05-03T08:36:21.002Z,2.70
2023-05-03T08:38:50.875Z,3.15
2023-05-03T08:41:33.820Z,3.20
2023-05-03T08:47:16.032Z,3.78
2023-05-03T08:49:46.500Z,3.65
2023-05-03T08:52:35.985Z,3.30
2023-05-03T08:55:12.676Z,3.92
2023-05-03T08:57:43.435Z,3.53
2023-05-03T09:00:15.489Z,3.40
2023-05-03T09:02:44.967Z,3.15
2023-05-03T09:05:39.221Z,3.40
2023-05-03T09:08:12.698Z,3.90
2023-05-03T09:10:43.333Z,3.22
2023-05-03T09:13:17.985Z,3.47
2023-05-03T09:15:56.103Z,3.13
2023-05-03T09:18:26.802Z,3.22
2023-05-03T09:20:57.968Z,3.35
2023-05-03T09:23:33.591Z,3.75
2023-05-03T09:26:03.196Z,3.38
2023-05-03T09:28:42.476Z,3.45
2023-05-03T09:31:13.350Z,4.00
2023-05-03T09:33:43.474Z,3.70
2023-05-03T09:36:18.942Z,3.80
2023-05-03T09:38:51.228Z,3.38
2023-05-03T09:41:30.342Z,3.22
2023-05-03T09:44:02.606Z,3.00
2023-05-03T09:46:38.648Z,3.47
2023-05-03T09:49:08.940Z,3.45
2023-05-03T09:51:41.024Z,3.63
2023-05-03T09:54:13.242Z,3.42
2023-05-03T09:56:44.518Z,4.15
2023-05-03T09:59:14.069Z,4.32
2023-05-03T10:01:43.364Z,4.63
2023-05-03T10:04:21.828Z,4.38
2023-05-03T10:06:52.538Z,4.43
2023-05-03T10:09:33.930Z,4.00
2023-05-03T10:12:06.700Z,3.97
2023-05-03T10:14:43.621Z,4.00
2023-05-03T10:17:19.488Z,4.20
2023-05-03T10:22:34.821Z,4.47
2023-05-03T10:25:15.934Z,4.90
2023-05-03T10:27:53.972Z,4.65
2023-05-03T10:30:34.495Z,4.15
2023-05-03T10:33:39.626Z,4.13
2023-05-03T10:36:16.012Z,4.22
2023-05-03T10:38:45.890Z,3.97
2023-05-03T10:41:27.237Z,3.80
2023-05-03T10:44:01.049Z,3.60
2023-05-03T10:46:41.222Z,3.75
2023-05-03T10:49:25.997Z,4.43
2023-05-03T10:54:35.660Z,3.88
2023-05-03T10:57:07.583Z,4.38
2023-05-03T10:59:49.871Z,3.55
2023-05-03T11:02:25.777Z,3.45
2023-05-03T11:05:02.188Z,3.45
2023-05-03T11:10:18.717Z,3.50
2023-05-03T11:18:06.964Z,3.40
2023-05-03T11:20:37.867Z,3.38
2023-05-03T11:23:12.915Z,3.47
2023-05-03T11:25:54.171Z,3.53
2023-05-03T11:28:25.549Z,3.70
2023-05-03T11:30:54.973Z,2.97
2023-05-03T11:33:31.434Z,2.95
2023-05-03T11:36:03.145Z,2.60
2023-05-03T11:41:02.023Z,3.20
2023-05-03T11:43:43.186Z,2.53
2023-05-03T11:46:14.098Z,2.70
2023-05-03T11:48:45.876Z,3.27
2023-05-03T11:53:44.767Z,2.42
2023-05-03T11:56:18.470Z,1.88
2023-05-03T11:58:58.169Z,2.38
2023-05-03T12:01:32.875Z,2.10
2023-05-03T12:04:04.936Z,2.30
2023-05-03T12:06:36.276Z,2.47
2023-05-03T12:09:17.817Z,2.25
2023-05-03T12:11:51.117Z,2.60
2023-05-03T12:14:24.048Z,2.10
2023-05-03T12:16:59.839Z,2.45
2023-05-03T12:19:38.295Z,6.35
2023-05-03T12:22:26.312Z,2.40
2023-05-03T12:24:58.337Z,2.22
2023-05-03T12:30:01.378Z,2.10
2023-05-03T12:32:33.491Z,2.10
2023-05-03T12:35:03.239Z,1.90
2023-05-03T12:37:33.527Z,3.05
2023-05-03T12:40:24.752Z,2.42
2023-05-03T12:42:52.377Z,2.78
2023-05-03T12:51:55.579Z,1.90
2023-05-03T12:54:48.523Z,2.30
2023-05-03T12:57:23.450Z,2.17
2023-05-03T13:00:02.197Z,2.70
2023-05-03T13:07:56.463Z,1.75
2023-05-03T13:13:04.117Z,2.30
2023-05-03T13:15:33.696Z,2.75
2023-05-03T13:18:04.526Z,2.35
2023-05-03T13:20:39.195Z,2.40
2023-05-03T13:23:10.648Z,2.60
2023-05-03T13:25:40.194Z,2.83
2023-05-03T13:28:10.136Z,2.25
2023-05-03T13:30:39.446Z,2.22
2023-05-03T13:33:08.778Z,2.50
2023-05-03T13:35:38.038Z,2.78
2023-05-03T13:38:16.057Z,2.38
2023-05-03T13:40:47.254Z,2.58
2023-05-03T13:43:16.737Z,2.20
2023-05-03T13:45:46.032Z,2.42
2023-05-03T13:48:19.086Z,2.47
2023-05-03T13:50:49.434Z,2.10
2023-05-03T13:53:18.633Z,1.90
2023-05-03T13:55:49.960Z,2.45
2023-05-03T13:58:19.646Z,2.17
2023-05-03T14:00:50.328Z,2.45
2023-05-03T14:03:25.278Z,2.60
2023-05-03T14:05:54.754Z,2.22
2023-05-03T14:08:24.879Z,2.60
2023-05-03T14:10:56.202Z,2.28
2023-05-03T14:13:25.663Z,2.20
2023-05-03T14:15:55.202Z,2.60
2023-05-03T14:18:24.800Z,2.40
2023-05-03T14:20:54.086Z,2.30
2023-05-03T14:23:29.214Z,2.60
2023-05-03T14:26:01.028Z,2.53
2023-05-03T14:30:59.385Z,2.55
2023-05-03T14:33:42.389Z,2.65
2023-05-03T14:36:11.935Z,2.75
2023-05-03T14:38:41.188Z,3.13
2023-05-03T14:41:21.995Z,4.22
2023-05-03T14:43:56.317Z,2.78
2023-05-03T14:46:25.675Z,2.78
2023-05-03T14:48:55.272Z,2.80
2023-05-03T14:54:05.691Z,2.87
2023-05-03T14:56:36.865Z,2.40
2023-05-03T14:59:06.464Z,3.15
2023-05-03T15:01:35.772Z,3.15
2023-05-03T15:04:10.184Z,3.30
2023-05-03T15:06:40.893Z,2.85
2023-05-03T15:09:27.930Z,2.80
2023-05-03T15:11:59.377Z,3.00
2023-05-03T15:14:33.908Z,3.00
2023-05-03T15:17:03.431Z,3.38
2023-05-03T15:19:32.850Z,3.25
2023-05-03T15:22:02.642Z,2.85
2023-05-03T15:24:31.938Z,2.83
2023-05-03T15:27:04.957Z,2.63
2023-05-03T15:29:34.800Z,2.78
2023-05-03T15:32:04.057Z,1.98
2023-05-03T15:34:40.161Z,2.70
2023-05-03T15:37:11.953Z,2.60
2023-05-03T15:39:46.376Z,2.50
2023-05-03T15:42:17.937Z,2.67
2023-05-03T15:44:49.142Z,3.05
2023-05-03T15:47:18.926Z,2.45
2023-05-03T15:49:48.964Z,2.63
2023-05-03T15:52:18.386Z,2.88
2023-05-03T15:54:47.826Z,3.22
2023-05-03T15:57:24.891Z,2.55
2023-05-03T15:59:54.669Z,3.15
2023-05-03T16:02:24.042Z,3.63
2023-05-03T16:04:53.624Z,3.08
2023-05-03T16:07:23.043Z,2.63
2023-05-03T16:09:52.343Z,2.60
2023-05-03T16:12:24.104Z,2.75
2023-05-03T16:15:13.319Z,2.67
2023-05-03T16:18:01.172Z,2.55
2023-05-03T16:20:30.752Z,2.53
2023-05-03T16:23:00.495Z,2.80
2023-05-03T16:25:30.704Z,3.15
2023-05-03T16:28:02.503Z,3.13
2023-05-03T16:30:33.187Z,2.70
2023-05-03T16:33:17.938Z,2.92
2023-05-03T16:35:49.676Z,2.85
2023-05-03T16:38:19.623Z,3.00
2023-05-03T16:40:48.772Z,3.20
2023-05-03T16:43:25.126Z,3.10
2023-05-03T16:46:13.469Z,2.70
2023-05-03T16:48:42.885Z,2.97
2023-05-03T16:51:12.226Z,2.95
2023-05-03T16:53:46.913Z,2.97
2023-05-03T16:56:16.044Z,2.67
2023-05-03T16:58:58.698Z,2.50
2023-05-03T17:01:51.886Z,2.40
2023-05-03T17:07:02.582Z,2.60
2023-05-03T17:09:38.183Z,2.60
2023-05-03T17:12:07.942Z,2.55
2023-05-03T17:14:54.116Z,2.25
2023-05-03T17:17:23.592Z,2.08
2023-05-03T17:19:53.110Z,2.90
2023-05-03T17:22:29.820Z,2.60
2023-05-03T17:24:59.435Z,3.13
2023-05-03T17:27:47.765Z,3.13
2023-05-03T17:30:21.209Z,3.20
2023-05-03T17:32:51.550Z,3.63
2023-05-03T17:35:21.474Z,3.38
2023-05-03T17:37:50.818Z,3.33
2023-05-03T17:40:20.402Z,3.40
2023-05-03T17:42:50.317Z,3.80
2023-05-03T17:45:22.268Z,3.20
2023-05-03T17:47:51.828Z,3.40
2023-05-03T17:50:26.378Z,3.33
2023-05-03T17:52:57.079Z,3.85
2023-05-03T17:55:46.633Z,3.40
2023-05-03T17:58:26.710Z,3.13
2023-05-03T18:00:58.000Z,3.33
2023-05-03T18:03:27.571Z,3.15
2023-05-03T18:05:56.952Z,3.53
2023-05-03T18:08:32.807Z,3.20
2023-05-03T18:11:04.705Z,3.13
2023-05-03T18:13:34.219Z,3.42
2023-05-03T18:16:09.160Z,3.20
2023-05-03T18:18:43.687Z,3.00
2023-05-03T18:21:28.417Z,3.22
2023-05-03T18:23:58.161Z,3.38
2023-05-03T18:26:27.467Z,4.30
2023-05-03T18:28:56.611Z,3.08
2023-05-03T18:31:28.225Z,4.10
2023-05-03T18:36:27.032Z,3.55
2023-05-03T18:38:56.862Z,3.90
2023-05-03T18:41:26.423Z,3.47
2023-05-03T18:46:44.117Z,3.65
2023-05-03T18:49:13.572Z,3.33
2023-05-03T18:51:42.878Z,2.22
2023-05-03T18:54:12.244Z,2.72
2023-05-03T18:56:41.798Z,2.80
2023-05-03T18:59:11.003Z,1.65
2023-05-03T19:01:40.398Z,1.90
2023-05-03T19:04:18.675Z,2.17
2023-05-03T19:09:32.379Z,1.95
2023-05-03T19:12:25.830Z,1.80
2023-05-03T19:14:55.570Z,1.77
2023-05-03T19:17:24.946Z,1.83
2023-05-03T19:19:56.288Z,1.52
2023-05-03T19:22:25.748Z,2.17
2023-05-03T19:24:55.138Z,1.80
2023-05-03T19:27:24.558Z,1.67
2023-05-03T19:29:57.580Z,1.60
2023-05-03T19:32:45.568Z,1.75
2023-05-03T19:35:16.760Z,1.98
2023-05-03T19:37:46.885Z,1.90
2023-05-03T19:40:16.401Z,2.10
2023-05-03T19:45:33.393Z,1.98
2023-05-03T19:48:05.675Z,2.10
2023-05-03T19:50:39.508Z,2.20
2023-05-03T19:55:49.542Z,2.10
2023-05-03T19:58:18.934Z,2.05
2023-05-03T20:00:48.296Z,1.80
2023-05-03T20:03:22.891Z,1.90
2023-05-03T20:05:54.466Z,2.05
2023-05-03T20:08:23.932Z,2.30
2023-05-03T20:10:55.224Z,1.80
2023-05-03T20:13:29.944Z,2.25
2023-05-03T20:16:10.776Z,2.17
2023-05-03T20:18:41.107Z,2.40
2023-05-03T20:21:13.547Z,2.10
2023-05-03T20:23:49.166Z,2.10
2023-05-03T20:26:19.025Z,2.10
2023-05-03T20:28:48.393Z,2.15
2023-05-03T20:31:17.846Z,1.85
2023-05-03T20:33:47.037Z,2.40
2023-05-03T20:36:18.403Z,1.85
2023-05-03T20:38:47.839Z,1.90
2023-05-03T20:41:17.956Z,2.45
2023-05-03T20:43:54.745Z,2.70
2023-05-03T20:46:24.394Z,2.78
2023-05-03T20:48:53.899Z,3.10
2023-05-03T20:51:26.089Z,2.90
2023-05-03T20:53:55.679Z,3.03
2023-05-03T20:56:30.005Z,3.10
2023-05-03T20:59:01.693Z,3.17
2023-05-03T21:01:36.176Z,3.00
2023-05-03T21:04:05.695Z,3.15
2023-05-03T21:06:37.926Z,3.00
2023-05-03T21:09:07.661Z,2.95
2023-05-03T21:11:36.960Z,3.03
2023-05-03T21:14:30.132Z,3.20
2023-05-03T21:17:18.345Z,2.72
2023-05-03T21:20:08.064Z,2.53
2023-05-03T21:22:39.603Z,3.03
2023-05-03T21:25:12.508Z,2.85
2023-05-03T21:27:56.734Z,2.75
2023-05-03T21:30:31.441Z,2.90
2023-05-03T21:33:00.980Z,1.77
2023-05-03T21:35:58.267Z,2.47
2023-05-03T21:38:29.567Z,2.15
2023-05-03T21:41:04.525Z,2.20
2023-05-03T21:43:35.026Z,2.40
2023-05-03T21:46:04.595Z,1.98
2023-05-03T21:49:10.151Z,2.00
2023-05-03T21:51:39.620Z,2.20
2023-05-03T21:54:26.071Z,2.25
2023-05-03T21:56:56.014Z,2.05
2023-05-03T21:59:25.441Z,1.83
2023-05-03T22:01:56.120Z,1.90
2023-05-03T22:04:41.434Z,2.10
2023-05-03T22:10:21.160Z,1.80
2023-05-03T22:12:50.680Z,1.65
2023-05-03T22:15:21.579Z,2.10
2023-05-03T22:17:51.342Z,1.90
2023-05-03T22:20:20.821Z,1.77
2023-05-03T22:22:50.073Z,1.90
2023-05-03T22:25:31.959Z,2.08
2023-05-03T22:28:01.868Z,1.90
2023-05-03T22:30:44.095Z,1.90
2023-05-03T22:33:13.708Z,2.10
2023-05-03T22:35:48.176Z,1.70
2023-05-03T22:38:18.116Z,1.88
2023-05-03T22:40:49.426Z,1.70
2023-05-03T22:43:19.311Z,1.77
2023-05-03T22:45:48.756Z,1.92
2023-05-03T22:48:18.222Z,2.00
2023-05-03T22:50:47.603Z,2.53
2023-05-03T22:53:32.513Z,2.00
2023-05-03T22:56:27.526Z,1.80
2023-05-03T22:58:59.536Z,1.88
2023-05-03T23:01:29.668Z,1.95
2023-05-03T23:04:11.292Z,1.80
2023-05-03T23:06:40.923Z,2.08
2023-05-03T23:09:10.250Z,1.65
2023-05-03T23:11:39.683Z,1.67
2023-05-03T23:14:11.009Z,1.80
2023-05-03T23:16:52.847Z,1.80
2023-05-03T23:19:22.317Z,1.70
2023-05-03T23:21:52.240Z,1.65
2023-05-03T23:24:51.397Z,1.90
2023-05-03T23:27:20.819Z,1.88
2023-05-03T23:29:53.061Z,1.80
2023-05-03T23:32:23.186Z,1.70
2023-05-03T23:35:11.991Z,1.63
2023-05-03T23:37:41.574Z,1.70
2023-05-03T23:40:27.308Z,2.00
2023-05-03T23:42:57.143Z,1.63
2023-05-03T23:45:28.734Z,1.75
2023-05-03T23:48:11.140Z,1.98
2023-05-03T23:50:47.502Z,1.52
2023-05-03T23:53:16.800Z,1.60
2023-05-03T23:56:04.171Z,1.83
2023-05-03T23:58:33.482Z,1.50
